Time;durP1;ratioP1;P1;durP2;ratioP2;P2;SDS_P1;SDS_P2;PMS_P1;PMS_P2;Temp;Humidity;BMP_temperature;BMP_pressure;BME280_temperature;BME280_humidity;BME280_pressure;Samples;Min_cycle;Max_cycle;Signal;HPM_P1;HPM_P2
2023/04/16 00:00:24;;;;;;;66.57;30.08;;;8.90;99.90;;;;;;5074963;28;20388;-35
2023/04/16 00:02:50;;;;;;;66.35;31.23;;;9.00;99.90;;;;;;5064893;28;20480;-35
2023/04/16 00:05:16;;;;;;;73.28;31.98;;;8.90;99.90;;;;;;5065550;28;20043;-35
2023/04/16 00:07:43;;;;;;;75.75;35.15;;;9.00;99.90;;;;;;5091469;28;20036;-35
2023/04/16 00:10:09;;;;;;;63.92;31.67;;;9.00;99.90;;;;;;5070789;28;20048;-35
2023/04/16 00:12:35;;;;;;;65.88;31.05;;;9.00;99.90;;;;;;5062603;28;20032;-35
2023/04/16 00:15:01;;;;;;;59.05;31.08;;;9.00;99.90;;;;;;5082907;28;20040;-36
2023/04/16 00:17:26;;;;;;;64.22;30.92;;;9.00;99.90;;;;;;5066828;28;20169;-35
2023/04/16 00:19:52;;;;;;;57.20;30.73;;;8.90;99.90;;;;;;5072004;28;21030;-35
2023/04/16 00:22:18;;;;;;;62.80;32.08;;;8.90;99.90;;;;;;5063897;28;20032;-35
2023/04/16 00:24:44;;;;;;;54.95;30.98;;;8.80;99.90;;;;;;5057254;28;20402;-33
2023/04/16 00:27:09;;;;;;;60.72;32.20;;;8.90;99.90;;;;;;5060206;28;20039;-35
2023/04/16 00:29:35;;;;;;;66.43;32.33;;;8.90;99.90;;;;;;5064402;28;20576;-35
2023/04/16 00:32:01;;;;;;;64.68;33.10;;;8.90;99.90;;;;;;5073522;28;20066;-34
2023/04/16 00:34:26;;;;;;;71.03;35.05;;;9.00;99.90;;;;;;5062816;28;20086;-33
2023/04/16 00:36:52;;;;;;;58.10;31.58;;;8.90;99.90;;;;;;5073376;28;20043;-35
2023/04/16 00:39:18;;;;;;;70.68;34.50;;;9.00;99.90;;;;;;5085784;28;20063;-34
2023/04/16 00:41:44;;;;;;;66.22;33.38;;;9.00;99.90;;;;;;5083353;28;20044;-35
2023/04/16 00:44:09;;;;;;;60.08;33.20;;;9.00;99.90;;;;;;5072382;28;20071;-35
2023/04/16 00:46:36;;;;;;;58.92;31.73;;;9.00;99.90;;;;;;5073121;28;20487;-35
2023/04/16 00:49:03;;;;;;;58.40;31.33;;;9.00;99.90;;;;;;5069015;28;20501;-35
2023/04/16 00:51:30;;;;;;;62.67;33.47;;;9.00;99.90;;;;;;5070839;28;20480;-35
2023/04/16 00:53:57;;;;;;;60.08;33.13;;;8.90;99.90;;;;;;5070698;28;20043;-35
2023/04/16 00:56:24;;;;;;;60.60;32.50;;;9.10;99.90;;;;;;5087480;28;20043;-34
2023/04/16 00:58:50;;;;;;;58.95;31.83;;;9.00;99.90;;;;;;5070840;28;20067;-35
2023/04/16 01:01:15;;;;;;;60.63;33.08;;;9.00;99.90;;;;;;5064206;28;20072;-35
2023/04/16 01:03:47;;;;;;;62.35;32.72;;;9.10;99.90;;;;;;5069805;28;20036;-35
2023/04/16 01:06:15;;;;;;;62.13;34.47;;;9.00;99.90;;;;;;5072395;28;20043;-36
2023/04/16 01:08:41;;;;;;;66.13;34.28;;;9.00;99.90;;;;;;5068558;28;20044;-35
2023/04/16 01:11:07;;;;;;;67.00;34.75;;;9.00;99.90;;;;;;5067614;28;20109;-36
2023/04/16 01:13:32;;;;;;;63.55;34.60;;;9.00;99.90;;;;;;5067950;28;20028;-35
2023/04/16 01:15:59;;;;;;;58.88;31.48;;;9.00;99.90;;;;;;5074520;28;20077;-35
2023/04/16 01:18:25;;;;;;;60.35;32.92;;;9.00;99.90;;;;;;5077922;28;20040;-35
2023/04/16 01:20:51;;;;;;;61.15;34.28;;;9.00;99.90;;;;;;5071095;28;20031;-35
2023/04/16 01:23:18;;;;;;;59.17;33.28;;;9.00;99.90;;;;;;5066600;28;20486;-35
2023/04/16 01:25:44;;;;;;;59.95;34.70;;;9.00;99.90;;;;;;5068480;28;20105;-35
2023/04/16 01:28:10;;;;;;;56.63;33.95;;;9.10;99.90;;;;;;5066980;28;20036;-35
2023/04/16 01:30:36;;;;;;;55.90;33.45;;;9.00;99.90;;;;;;5067062;28;20397;-35
2023/04/16 01:33:01;;;;;;;55.35;33.22;;;9.00;99.90;;;;;;5065213;28;20044;-35
2023/04/16 01:35:27;;;;;;;60.53;34.33;;;8.90;99.90;;;;;;5071062;28;20035;-35
2023/04/16 01:37:53;;;;;;;57.58;34.25;;;8.90;99.90;;;;;;5064515;28;20509;-35
2023/04/16 01:40:19;;;;;;;57.05;34.05;;;9.00;99.90;;;;;;5072919;28;20038;-35
2023/04/16 01:42:45;;;;;;;56.35;32.75;;;8.90;99.90;;;;;;5073876;28;20032;-36
2023/04/16 01:45:11;;;;;;;63.35;34.97;;;9.00;99.90;;;;;;5067995;28;20501;-35
2023/04/16 01:47:37;;;;;;;54.53;33.92;;;8.90;99.90;;;;;;5074874;28;20448;-35
2023/04/16 01:50:03;;;;;;;57.80;34.15;;;8.90;99.90;;;;;;5072757;28;20067;-35
2023/04/16 01:52:30;;;;;;;54.05;33.40;;;8.90;99.90;;;;;;5068957;28;20213;-35
2023/04/16 01:54:55;;;;;;;60.53;33.00;;;8.90;99.90;;;;;;5074187;28;20063;-35
2023/04/16 01:57:21;;;;;;;58.92;34.08;;;8.90;99.90;;;;;;5072314;28;20273;-35
2023/04/16 01:59:47;;;;;;;52.97;33.08;;;8.90;99.90;;;;;;5064733;28;20113;-34
2023/04/16 02:02:15;;;;;;;56.58;31.83;;;9.00;99.90;;;;;;5087618;28;20035;-33
2023/04/16 02:04:46;;;;;;;60.85;33.78;;;8.90;99.90;;;;;;5071295;28;20132;-33
2023/04/16 02:07:12;;;;;;;61.90;34.13;;;8.90;99.90;;;;;;5085191;28;20043;-34
2023/04/16 02:09:39;;;;;;;56.13;34.42;;;8.90;99.90;;;;;;5070215;28;20119;-33
2023/04/16 02:12:06;;;;;;;55.17;33.05;;;8.90;99.90;;;;;;5071124;28;20039;-34
2023/04/16 02:14:32;;;;;;;65.88;34.97;;;8.90;99.90;;;;;;5076310;28;20377;-33
2023/04/16 02:16:58;;;;;;;59.35;34.22;;;8.90;99.90;;;;;;5071384;28;20103;-34
2023/04/16 02:19:24;;;;;;;62.15;33.38;;;8.90;99.90;;;;;;5093985;28;20059;-34
2023/04/16 02:21:53;;;;;;;63.70;36.05;;;8.90;99.90;;;;;;5073952;28;20046;-35
2023/04/16 02:24:20;;;;;;;54.30;34.05;;;8.90;99.90;;;;;;5051741;28;20039;-34
2023/04/16 02:26:46;;;;;;;58.67;33.95;;;8.90;99.90;;;;;;5065288;28;20036;-35
2023/04/16 02:29:12;;;;;;;51.67;32.08;;;8.90;99.90;;;;;;5088596;28;20438;-34
2023/04/16 02:31:38;;;;;;;58.72;34.83;;;8.80;99.90;;;;;;5072349;28;20083;-34
2023/04/16 02:34:04;;;;;;;60.38;34.10;;;8.80;99.90;;;;;;5068166;28;20067;-35
2023/04/16 02:36:30;;;;;;;57.60;34.85;;;8.70;99.90;;;;;;5067921;28;20044;-34
2023/04/16 02:39:00;;;;;;;60.90;35.55;;;8.70;99.90;;;;;;5063806;28;20039;-35
2023/04/16 02:41:25;;;;;;;52.33;33.55;;;8.70;99.90;;;;;;5066766;28;20111;-34
2023/04/16 02:43:51;;;;;;;61.15;35.15;;;8.80;99.90;;;;;;5070829;28;20127;-34
2023/04/16 02:46:17;;;;;;;61.33;34.58;;;8.70;99.90;;;;;;5070114;28;20499;-35
2023/04/16 02:48:43;;;;;;;62.95;35.42;;;8.70;99.90;;;;;;5074077;28;20040;-35
2023/04/16 02:51:08;;;;;;;60.45;33.88;;;8.80;99.90;;;;;;5089440;28;20036;-35
2023/04/16 02:53:34;;;;;;;59.40;33.95;;;8.80;99.90;;;;;;5068982;28;20036;-35
2023/04/16 02:56:00;;;;;;;55.20;33.67;;;8.80;99.90;;;;;;5082233;28;20047;-35
2023/04/16 02:58:26;;;;;;;59.90;34.17;;;8.70;99.90;;;;;;5070332;28;20032;-35
2023/04/16 03:00:53;;;;;;;64.55;34.58;;;8.70;99.90;;;;;;5079048;28;20037;-34
2023/04/16 03:03:20;;;;;;;61.15;34.25;;;8.80;99.90;;;;;;5088825;28;20042;-35
2023/04/16 03:05:46;;;;;;;60.97;33.30;;;8.70;99.90;;;;;;5058567;28;20032;-35
2023/04/16 03:08:12;;;;;;;60.42;34.63;;;8.60;99.90;;;;;;5068907;28;20044;-35
2023/04/16 03:10:37;;;;;;;61.42;35.03;;;8.70;99.90;;;;;;5074213;28;20089;-35
2023/04/16 03:13:04;;;;;;;54.30;34.17;;;8.70;99.90;;;;;;5073114;28;20575;-35
2023/04/16 03:15:30;;;;;;;59.60;34.65;;;8.70;99.90;;;;;;5066711;28;20089;-35
2023/04/16 03:17:59;;;;;;;56.45;33.05;;;8.70;99.90;;;;;;5074761;28;20396;-35
2023/04/16 03:20:25;;;;;;;57.28;34.58;;;8.70;99.90;;;;;;5066802;28;20039;-35
2023/04/16 03:22:51;;;;;;;53.53;34.72;;;8.70;99.90;;;;;;5073428;28;20042;-36
2023/04/16 03:25:17;;;;;;;52.15;33.13;;;8.60;99.90;;;;;;5089287;28;20485;-35
2023/04/16 03:27:43;;;;;;;67.90;36.95;;;8.60;99.90;;;;;;5069241;28;20519;-35
2023/04/16 03:30:13;;;;;;;61.88;35.67;;;8.60;99.90;;;;;;5063696;28;20029;-35
2023/04/16 03:32:39;;;;;;;58.10;34.00;;;8.60;99.90;;;;;;5073669;28;20063;-35
2023/04/16 03:35:06;;;;;;;57.72;34.45;;;8.60;99.90;;;;;;5073282;28;20036;-35
2023/04/16 03:37:33;;;;;;;54.10;33.75;;;8.60;99.90;;;;;;5063085;28;20443;-35
2023/04/16 03:39:58;;;;;;;61.08;34.90;;;8.50;99.90;;;;;;5067274;28;20123;-35
2023/04/16 03:42:24;;;;;;;58.97;32.85;;;8.50;99.90;;;;;;5069424;28;20482;-35
2023/04/16 03:44:52;;;;;;;59.67;34.97;;;8.60;99.90;;;;;;5068940;28;20042;-35
2023/04/16 03:47:19;;;;;;;58.47;35.90;;;8.50;99.90;;;;;;5067487;28;20035;-35
2023/04/16 03:49:45;;;;;;;55.63;32.80;;;8.50;99.90;;;;;;5071987;28;20071;-35
2023/04/16 03:52:15;;;;;;;59.30;34.05;;;8.50;99.90;;;;;;5075694;28;20068;-33
2023/04/16 03:54:41;;;;;;;57.55;35.25;;;8.50;99.90;;;;;;5072777;28;20082;-36
2023/04/16 03:57:07;;;;;;;57.55;34.38;;;8.50;99.90;;;;;;5088051;28;20040;-36
2023/04/16 03:59:33;;;;;;;55.80;34.28;;;8.50;99.90;;;;;;5067622;28;20478;-36
2023/04/16 04:01:58;;;;;;;53.97;33.95;;;8.50;99.90;;;;;;5086591;28;20043;-36
2023/04/16 04:04:24;;;;;;;53.28;33.70;;;8.40;99.90;;;;;;5072213;28;20119;-35
2023/04/16 04:06:50;;;;;;;57.90;35.05;;;8.50;99.90;;;;;;5065378;28;20028;-35
2023/04/16 04:09:16;;;;;;;57.97;33.67;;;8.50;99.90;;;;;;5064607;28;20032;-36
2023/04/16 04:11:42;;;;;;;54.90;33.15;;;8.40;99.90;;;;;;5067307;28;20027;-35
2023/04/16 04:14:08;;;;;;;54.17;33.85;;;8.50;99.90;;;;;;5069937;28;20032;-36
2023/04/16 04:16:34;;;;;;;47.80;31.85;;;8.40;99.90;;;;;;5065584;28;20044;-36
2023/04/16 04:19:00;;;;;;;51.40;32.85;;;8.40;99.90;;;;;;5067323;28;20036;-36
2023/04/16 04:21:30;;;;;;;50.35;32.65;;;8.50;99.90;;;;;;5067961;28;20070;-35
2023/04/16 04:23:56;;;;;;;53.17;34.20;;;8.40;99.90;;;;;;5074639;28;20039;-35
2023/04/16 04:26:22;;;;;;;52.42;31.73;;;8.40;99.90;;;;;;5075334;28;20032;-35
2023/04/16 04:28:47;;;;;;;54.13;33.88;;;8.50;99.90;;;;;;5063584;28;20492;-35
2023/04/16 04:31:13;;;;;;;54.40;32.88;;;8.40;99.90;;;;;;5068517;28;20067;-35
2023/04/16 04:33:39;;;;;;;59.22;34.75;;;8.40;99.90;;;;;;5071862;28;20039;-35
2023/04/16 04:36:05;;;;;;;59.58;36.25;;;8.20;99.90;;;;;;5067181;28;20047;-35
2023/04/16 04:38:31;;;;;;;61.38;36.10;;;8.40;99.90;;;;;;5074584;28;20074;-35
2023/04/16 04:40:57;;;;;;;56.70;34.47;;;8.40;99.90;;;;;;5073753;28;20516;-36
2023/04/16 04:43:23;;;;;;;58.90;34.60;;;8.50;99.90;;;;;;5071785;28;20032;-35
2023/04/16 04:45:49;;;;;;;57.45;33.92;;;8.40;99.90;;;;;;5074609;28;20040;-35
2023/04/16 04:48:18;;;;;;;60.03;35.28;;;8.30;99.90;;;;;;5070117;28;20032;-35
2023/04/16 04:50:44;;;;;;;60.85;35.28;;;8.50;99.90;;;;;;5073219;28;20040;-35
2023/04/16 04:53:10;;;;;;;55.58;35.05;;;8.40;99.90;;;;;;5073159;28;20032;-36
2023/04/16 04:55:37;;;;;;;54.30;33.30;;;8.30;99.90;;;;;;5074420;28;20059;-35
2023/04/16 04:58:07;;;;;;;53.83;34.90;;;8.40;99.90;;;;;;5072956;28;20063;-37
2023/04/16 05:00:33;;;;;;;52.13;33.13;;;8.30;99.90;;;;;;5057480;28;20631;-35
2023/04/16 05:03:04;;;;;;;52.33;34.85;;;8.40;99.90;;;;;;5068772;28;20039;-35
2023/04/16 05:05:30;;;;;;;53.40;32.75;;;8.40;99.90;;;;;;5066598;28;20036;-35
2023/04/16 05:07:56;;;;;;;57.80;33.75;;;8.40;99.90;;;;;;5068989;28;20504;-35
2023/04/16 05:10:22;;;;;;;61.38;34.90;;;8.50;99.90;;;;;;5071785;28;20043;-35
2023/04/16 05:12:47;;;;;;;53.75;32.05;;;8.40;99.90;;;;;;5070924;28;20040;-35
2023/04/16 05:15:14;;;;;;;54.75;33.58;;;8.50;99.90;;;;;;5071113;28;20040;-35
2023/04/16 05:17:40;;;;;;;65.30;38.33;;;8.50;99.90;;;;;;5061078;28;20085;-35
2023/04/16 05:20:09;;;;;;;78.03;52.67;;;8.40;99.90;;;;;;5065673;28;20401;-35
2023/04/16 05:22:35;;;;;;;55.55;34.17;;;8.50;99.90;;;;;;5067866;28;20051;-35
2023/04/16 05:25:02;;;;;;;55.03;35.13;;;8.50;99.90;;;;;;5066219;28;20537;-36
2023/04/16 05:27:30;;;;;;;57.33;34.15;;;8.60;99.90;;;;;;5070075;28;20112;-36
2023/04/16 05:29:56;;;;;;;57.55;34.90;;;8.60;99.90;;;;;;5068190;28;20072;-36
2023/04/16 05:32:25;;;;;;;58.30;35.95;;;8.70;99.90;;;;;;5054475;28;20036;-36
2023/04/16 05:34:51;;;;;;;57.97;35.35;;;8.70;99.90;;;;;;5071007;28;20469;-33
2023/04/16 05:37:17;;;;;;;61.03;34.55;;;8.70;99.90;;;;;;5090866;28;20036;-35
2023/04/16 05:39:43;;;;;;;53.65;33.03;;;8.70;99.90;;;;;;5090046;28;20043;-35
2023/04/16 05:42:08;;;;;;;58.78;34.25;;;8.80;99.90;;;;;;5067071;28;20406;-36
2023/04/16 05:44:34;;;;;;;60.30;35.97;;;8.80;99.90;;;;;;5066214;28;20116;-35
2023/04/16 05:47:00;;;;;;;61.05;33.08;;;8.80;99.90;;;;;;5075556;28;20077;-36
2023/04/16 05:49:25;;;;;;;62.67;35.53;;;8.90;99.90;;;;;;5057907;28;20043;-35
2023/04/16 05:51:51;;;;;;;56.00;32.83;;;8.90;99.90;;;;;;5085276;28;20033;-35
2023/04/16 05:54:17;;;;;;;58.25;33.15;;;8.90;99.90;;;;;;5075334;28;20036;-36
2023/04/16 05:56:43;;;;;;;54.35;34.45;;;8.90;99.90;;;;;;5070298;28;20047;-35
2023/04/16 05:59:09;;;;;;;58.90;34.00;;;8.80;99.90;;;;;;5065545;28;20036;-35
2023/04/16 06:01:35;;;;;;;59.38;33.80;;;8.90;99.90;;;;;;5073579;28;20044;-35
2023/04/16 06:04:01;;;;;;;50.00;31.88;;;8.90;99.90;;;;;;5077051;28;20036;-35
2023/04/16 06:06:26;;;;;;;57.00;33.28;;;8.90;99.90;;;;;;5068005;28;20032;-36
2023/04/16 06:08:52;;;;;;;52.33;33.53;;;8.90;99.90;;;;;;5075382;28;20119;-35
2023/04/16 06:11:18;;;;;;;56.40;32.20;;;8.90;99.90;;;;;;5058749;28;20161;-35
2023/04/16 06:13:44;;;;;;;55.08;32.75;;;8.90;99.90;;;;;;5070288;28;20020;-35
2023/04/16 06:16:10;;;;;;;51.63;30.25;;;8.90;99.90;;;;;;5067915;28;20079;-35
2023/04/16 06:18:35;;;;;;;54.00;32.42;;;9.00;99.90;;;;;;5061329;28;20160;-35
2023/04/16 06:21:03;;;;;;;54.80;32.15;;;9.00;99.90;;;;;;5077455;28;20097;-35
2023/04/16 06:23:28;;;;;;;55.03;33.03;;;9.10;99.90;;;;;;5072548;28;20047;-35
2023/04/16 06:25:54;;;;;;;54.38;33.08;;;9.10;99.90;;;;;;5073745;28;20032;-35
2023/04/16 06:28:21;;;;;;;52.55;31.67;;;9.00;99.90;;;;;;5068449;28;20178;-35
2023/04/16 06:30:47;;;;;;;49.45;31.40;;;9.10;99.90;;;;;;5066570;28;20275;-35
2023/04/16 06:33:12;;;;;;;48.33;30.25;;;9.10;99.90;;;;;;5089744;28;20032;-36
2023/04/16 06:35:38;;;;;;;49.17;30.88;;;9.10;99.90;;;;;;5090130;28;20036;-35
2023/04/16 06:38:04;;;;;;;44.95;28.83;;;9.10;99.90;;;;;;5077123;28;20214;-36
2023/04/16 06:40:30;;;;;;;48.85;30.95;;;9.10;99.90;;;;;;5073742;28;20036;-35
2023/04/16 06:42:55;;;;;;;46.78;29.17;;;9.20;99.90;;;;;;5076120;28;20039;-35
2023/04/16 06:45:21;;;;;;;44.47;29.98;;;9.10;99.90;;;;;;5077668;28;20042;-35
2023/04/16 06:47:47;;;;;;;47.80;30.02;;;9.10;99.90;;;;;;5077195;28;20455;-35
2023/04/16 06:50:13;;;;;;;46.58;30.30;;;9.10;99.90;;;;;;5074594;28;20109;-35
2023/04/16 06:52:39;;;;;;;46.72;29.23;;;9.10;99.90;;;;;;5070273;28;20032;-35
2023/04/16 06:55:08;;;;;;;49.72;30.05;;;9.10;99.90;;;;;;5057106;28;20503;-35
2023/04/16 06:57:35;;;;;;;51.33;30.98;;;9.20;99.90;;;;;;5076596;28;20065;-35
2023/04/16 07:00:01;;;;;;;51.13;32.55;;;9.30;99.90;;;;;;5070954;28;20489;-35
2023/04/16 07:02:27;;;;;;;45.92;30.80;;;9.30;99.90;;;;;;5068716;28;20064;-35
2023/04/16 07:04:52;;;;;;;45.72;28.95;;;9.30;99.90;;;;;;5069164;28;20396;-40
2023/04/16 07:07:18;;;;;;;44.63;29.30;;;9.40;99.90;;;;;;5068490;28;20040;-35
2023/04/16 07:09:44;;;;;;;52.45;30.48;;;9.60;99.90;;;;;;5071282;28;20040;-35
2023/04/16 07:12:10;;;;;;;48.22;30.08;;;9.60;99.90;;;;;;5066032;28;20051;-36
2023/04/16 07:14:36;;;;;;;44.35;27.83;;;9.70;99.90;;;;;;5086496;28;20505;-35
2023/04/16 07:17:01;;;;;;;47.22;29.70;;;9.80;99.90;;;;;;5072929;28;20089;-35
2023/04/16 07:19:31;;;;;;;47.67;28.80;;;10.10;99.90;;;;;;5086077;28;20028;-35
2023/04/16 07:21:57;;;;;;;49.53;29.30;;;10.00;99.90;;;;;;5073047;28;20040;-35
2023/04/16 07:24:23;;;;;;;43.72;28.15;;;10.10;99.90;;;;;;5075524;28;20048;-35
2023/04/16 07:26:49;;;;;;;48.22;31.27;;;10.10;99.90;;;;;;5075153;28;20393;-35
2023/04/16 07:29:15;;;;;;;46.00;28.23;;;10.10;99.90;;;;;;5069230;28;20146;-35
2023/04/16 07:31:41;;;;;;;46.40;30.17;;;10.20;99.90;;;;;;5071331;28;20028;-35
2023/04/16 07:34:07;;;;;;;43.50;27.42;;;10.40;99.90;;;;;;5092618;28;20043;-36
2023/04/16 07:36:32;;;;;;;43.38;27.90;;;10.50;99.90;;;;;;5073731;28;20093;-35
2023/04/16 07:38:58;;;;;;;46.88;28.15;;;10.50;99.90;;;;;;5070458;28;20093;-35
2023/04/16 07:41:24;;;;;;;48.42;29.95;;;10.50;99.90;;;;;;5089124;28;20443;-36
2023/04/16 07:43:51;;;;;;;41.13;27.73;;;10.50;99.90;;;;;;5072417;28;20032;-36
2023/04/16 07:46:17;;;;;;;42.08;27.25;;;10.60;99.90;;;;;;5071315;28;20511;-34
2023/04/16 07:48:42;;;;;;;42.75;26.77;;;10.50;99.90;;;;;;5069720;28;20078;-37
2023/04/16 07:51:08;;;;;;;39.63;28.35;;;10.50;99.90;;;;;;5071071;28;20040;-34
2023/04/16 07:53:34;;;;;;;40.83;26.63;;;10.50;99.90;;;;;;5075849;28;20036;-34
2023/04/16 07:56:00;;;;;;;40.97;26.40;;;10.50;99.90;;;;;;5093608;28;20118;-34
2023/04/16 07:58:26;;;;;;;43.90;27.30;;;10.60;99.90;;;;;;5074703;28;20078;-34
2023/04/16 08:00:51;;;;;;;39.92;27.73;;;10.60;99.90;;;;;;5057174;28;20092;-34
2023/04/16 08:03:17;;;;;;;45.60;27.65;;;10.60;99.90;;;;;;5075009;28;20735;-34
2023/04/16 08:05:43;;;;;;;39.58;27.58;;;10.60;99.90;;;;;;5075321;28;20032;-34
2023/04/16 08:08:13;;;;;;;40.60;27.50;;;10.60;99.90;;;;;;5069060;28;20036;-34
2023/04/16 08:10:54;;;;;;;40.08;27.67;;;10.80;99.90;;;;;;5092838;28;20071;-34
2023/04/16 08:13:22;;;;;;;47.03;33.55;;;10.90;99.90;;;;;;5065041;28;20042;-34
2023/04/16 08:15:48;;;;;;;39.15;27.60;;;10.90;99.90;;;;;;5086250;28;20063;-34
2023/04/16 08:18:14;;;;;;;38.83;26.27;;;10.90;99.90;;;;;;5062438;28;20036;-34
2023/04/16 08:20:41;;;;;;;39.33;25.83;;;11.00;99.90;;;;;;5067420;28;20120;-34
2023/04/16 08:23:07;;;;;;;35.95;25.83;;;11.00;99.90;;;;;;5062646;28;20504;-34
2023/04/16 08:25:33;;;;;;;34.65;25.48;;;11.00;99.90;;;;;;5060989;28;20039;-34
2023/04/16 08:27:58;;;;;;;38.65;24.42;;;11.10;99.90;;;;;;5073054;28;20469;-34
2023/04/16 08:30:24;;;;;;;36.75;24.23;;;11.20;99.90;;;;;;5066086;28;20404;-34
2023/04/16 08:32:50;;;;;;;39.03;27.70;;;11.20;99.90;;;;;;5057139;28;20037;-34
2023/04/16 08:35:16;;;;;;;39.60;27.75;;;11.30;99.90;;;;;;5065098;28;20607;-34
2023/04/16 08:37:42;;;;;;;33.30;24.27;;;11.40;99.90;;;;;;5073354;28;20051;-34
2023/04/16 08:40:08;;;;;;;30.20;23.98;;;11.50;99.90;;;;;;5068667;28;20090;-34
2023/04/16 08:42:42;;;;;;;36.40;24.63;;;11.60;99.90;;;;;;5075007;28;20071;-34
2023/04/16 08:45:15;;;;;;;33.17;23.27;;;11.80;99.90;;;;;;5084848;28;20036;-34
2023/04/16 08:47:45;;;;;;;30.30;22.23;;;11.90;99.90;;;;;;5067454;28;20077;-34
2023/04/16 08:50:15;;;;;;;32.78;22.73;;;12.20;99.90;;;;;;5082661;28;20113;-33
2023/04/16 08:52:55;;;;;;;31.55;22.33;;;12.30;99.90;;;;;;5067570;28;20085;-34
2023/04/16 08:55:24;;;;;;;35.85;23.23;;;12.20;99.90;;;;;;5091949;28;20174;-34
2023/04/16 08:57:53;;;;;;;32.88;23.55;;;12.40;99.90;;;;;;5059764;28;20381;-34
2023/04/16 09:00:20;;;;;;;32.60;24.48;;;12.50;99.90;;;;;;5070886;28;20040;-34
2023/04/16 09:02:46;;;;;;;32.05;23.73;;;12.60;99.90;;;;;;5063346;28;20386;-34
2023/04/16 09:05:19;;;;;;;33.00;22.15;;;12.80;99.90;;;;;;5088953;28;20182;-34
2023/04/16 09:07:46;;;;;;;33.42;22.90;;;12.70;99.90;;;;;;5043945;28;20036;-34
2023/04/16 09:10:14;;;;;;;33.65;23.83;;;13.00;99.90;;;;;;5069887;28;20119;-34
2023/04/16 09:12:41;;;;;;;30.15;22.35;;;13.10;99.90;;;;;;5075236;28;20039;-34
2023/04/16 09:15:10;;;;;;;43.97;34.92;;;13.40;99.90;;;;;;5071638;28;20039;-34
2023/04/16 09:17:36;;;;;;;30.55;23.70;;;13.80;99.90;;;;;;5065607;28;20025;-34
2023/04/16 09:20:04;;;;;;;28.83;24.27;;;14.10;99.90;;;;;;5074272;28;20050;-34
2023/04/16 09:22:31;;;;;;;31.50;21.83;;;14.10;99.90;;;;;;5073223;28;20046;-34
2023/04/16 09:24:57;;;;;;;26.83;20.95;;;14.50;99.90;;;;;;5075517;28;20041;-34
2023/04/16 09:27:24;;;;;;;25.05;20.02;;;14.80;99.90;;;;;;5073572;28;20397;-34
2023/04/16 09:29:51;;;;;;;26.45;20.92;;;15.00;99.90;;;;;;5078502;28;20114;-34
2023/04/16 09:32:27;;;;;;;29.25;21.30;;;15.30;99.90;;;;;;5074678;28;20455;-35
2023/04/16 09:35:00;;;;;;;25.70;20.60;;;15.50;99.90;;;;;;5062226;28;20051;-34
2023/04/16 09:37:30;;;;;;;25.13;22.10;;;15.50;99.90;;;;;;5075968;28;20035;-34
2023/04/16 09:40:00;;;;;;;26.20;19.50;;;16.20;99.90;;;;;;5065113;28;20043;-34
2023/04/16 09:42:32;;;;;;;28.27;20.33;;;16.10;99.90;;;;;;5076053;28;20093;-34
2023/04/16 09:44:58;;;;;;;25.42;19.27;;;16.40;99.90;;;;;;5082168;28;20096;-35
2023/04/16 09:47:45;;;;;;;22.77;18.77;;;16.40;99.90;;;;;;5076528;28;20125;-35
2023/04/16 09:50:18;;;;;;;28.98;23.48;;;15.90;99.90;;;;;;5075694;28;20036;-41
2023/04/16 09:52:46;;;;;;;;;;;16.20;99.90;;;;;;5073794;28;20036;-34
2023/04/16 09:55:12;;;;;;;23.63;19.10;;;16.00;99.90;;;;;;5095475;28;19973;-34
2023/04/16 09:57:38;;;;;;;27.30;19.00;;;15.90;99.90;;;;;;5071730;28;20107;-35
2023/04/16 10:00:07;;;;;;;25.33;18.60;;;15.80;99.90;;;;;;5096437;28;20185;-34
2023/04/16 10:02:34;;;;;;;26.38;19.75;;;15.90;99.90;;;;;;5076992;28;20039;-35
2023/04/16 10:05:03;;;;;;;24.02;18.75;;;15.70;99.90;;;;;;5070312;28;21110;-34
2023/04/16 10:07:34;;;;;;;23.83;18.65;;;15.70;99.90;;;;;;5087536;28;20044;-35
2023/04/16 10:10:01;;;;;;;28.20;18.98;;;15.90;99.90;;;;;;5074986;28;20495;-34
2023/04/16 10:12:28;;;;;;;28.33;18.35;;;16.10;99.90;;;;;;5095178;28;20036;-35
2023/04/16 10:14:54;;;;;;;22.42;18.70;;;16.10;99.90;;;;;;5070987;28;20028;-34
2023/04/16 10:17:20;;;;;;;24.02;17.80;;;16.10;99.90;;;;;;5073905;28;20115;-34
2023/04/16 10:19:47;;;;;;;21.42;17.85;;;16.60;99.90;;;;;;5072908;28;20098;-35
2023/04/16 10:22:13;;;;;;;21.63;17.98;;;16.30;99.90;;;;;;5091869;28;20036;-35
2023/04/16 10:24:40;;;;;;;23.95;18.00;;;16.50;99.90;;;;;;5093017;28;20451;-35
2023/04/16 10:27:07;;;;;;;22.35;17.83;;;16.60;99.90;;;;;;5092389;28;20535;-35
2023/04/16 10:29:33;;;;;;;24.65;17.73;;;16.50;99.90;;;;;;5094679;28;20044;-34
2023/04/16 10:32:00;;;;;;;26.58;18.85;;;16.80;99.90;;;;;;5075804;28;20834;-35
2023/04/16 10:34:27;;;;;;;22.35;16.63;;;16.90;99.90;;;;;;5069089;28;20043;-35
2023/04/16 10:36:54;;;;;;;22.27;18.77;;;16.70;99.90;;;;;;5077425;28;20040;-35
2023/04/16 10:39:22;;;;;;;21.23;17.17;;;17.00;99.90;;;;;;5077353;28;20086;-34
2023/04/16 10:41:49;;;;;;;20.42;16.88;;;16.80;99.90;;;;;;5077820;28;20096;-35
2023/04/16 10:44:17;;;;;;;22.48;18.02;;;16.90;99.90;;;;;;5077300;28;20032;-35
2023/04/16 10:46:48;;;;;;;21.83;17.70;;;17.30;99.90;;;;;;5093679;28;20502;-35
2023/04/16 10:49:23;;;;;;;20.38;17.02;;;17.40;99.90;;;;;;5077601;28;20428;-35
2023/04/16 10:52:06;;;;;;;23.88;18.40;;;17.80;99.90;;;;;;5089691;28;20123;-35
2023/04/16 10:54:34;;;;;;;20.35;17.90;;;18.20;99.90;;;;;;5076845;28;20024;-35
2023/04/16 10:57:08;;;;;;;23.08;17.15;;;18.70;99.90;;;;;;5077058;28;20393;-35
2023/04/16 10:59:36;;;;;;;25.77;17.65;;;18.50;99.90;;;;;;5076631;28;20048;-35
2023/04/16 11:02:15;;;;;;;21.75;17.00;;;18.90;99.90;;;;;;5077063;28;20043;-35
2023/04/16 11:04:45;;;;;;;22.50;17.83;;;19.00;99.90;;;;;;5076494;28;20032;-35
2023/04/16 11:07:14;;;;;;;23.77;17.05;;;19.10;99.90;;;;;;5076492;28;20029;-35
2023/04/16 11:09:51;;;;;;;22.25;16.15;;;18.90;99.90;;;;;;5077012;28;20511;-35
2023/04/16 11:12:39;;;;;;;22.67;16.90;;;18.90;99.90;;;;;;5070422;28;20048;-35
2023/04/16 11:15:09;;;;;;;19.55;16.33;;;18.80;99.90;;;;;;5072175;28;20033;-35
2023/04/16 11:17:39;;;;;;;20.85;16.77;;;18.50;99.90;;;;;;5094495;28;20578;-35
2023/04/16 11:20:19;;;;;;;21.05;15.93;;;18.80;99.90;;;;;;5076134;28;20473;-34
2023/04/16 11:22:48;;;;;;;19.73;16.45;;;18.70;99.90;;;;;;5074731;28;20561;-35
2023/04/16 11:25:22;;;;;;;22.67;16.27;;;18.70;99.90;;;;;;5067779;28;20098;-35
2023/04/16 11:27:50;;;;;;;22.55;16.55;;;18.40;99.90;;;;;;5087383;28;20048;-35
2023/04/16 11:30:18;;;;;;;21.30;16.02;;;18.40;99.90;;;;;;5091549;28;20024;-34
2023/04/16 11:32:44;;;;;;;21.75;16.02;;;18.00;99.90;;;;;;5076756;28;20519;-34
2023/04/16 11:35:16;;;;;;;20.20;16.90;;;17.80;99.90;;;;;;5075683;28;20044;-34
2023/04/16 11:37:43;;;;;;;20.20;15.93;;;17.60;99.90;;;;;;5091584;28;20515;-35
2023/04/16 11:40:10;;;;;;;23.52;16.83;;;17.50;99.90;;;;;;5074165;28;20508;-34
2023/04/16 11:42:39;;;;;;;21.70;16.00;;;17.50;99.90;;;;;;5074300;28;20066;-34
2023/04/16 11:45:10;;;;;;;19.30;15.45;;;17.40;99.90;;;;;;5054491;28;20128;-35
2023/04/16 11:48:02;;;;;;;22.38;16.52;;;17.40;99.90;;;;;;5064699;28;20114;-35
2023/04/16 11:50:28;;;;;;;15.88;14.10;;;17.00;99.90;;;;;;5068059;28;20409;-35
2023/04/16 11:53:02;;;;;;;20.58;16.00;;;16.90;99.90;;;;;;5068649;28;20040;-35
2023/04/16 11:55:28;;;;;;;21.67;15.95;;;16.90;99.90;;;;;;5070974;28;20044;-35
2023/04/16 11:57:54;;;;;;;22.23;16.02;;;16.60;99.90;;;;;;5076072;28;20042;-35
2023/04/16 12:00:20;;;;;;;18.33;15.60;;;16.80;99.90;;;;;;5072881;28;20119;-36
2023/04/16 12:02:50;;;;;;;20.77;15.20;;;16.50;99.90;;;;;;5070789;28;20447;-36
2023/04/16 12:05:33;;;;;;;20.90;15.52;;;16.60;99.90;;;;;;5073515;28;20043;-36
2023/04/16 12:08:05;;;;;;;17.77;14.82;;;16.70;99.90;;;;;;5066822;28;20512;-37
2023/04/16 12:10:33;;;;;;;20.25;16.13;;;17.10;99.90;;;;;;5067718;28;20036;-36
2023/04/16 12:13:14;;;;;;;18.65;16.23;;;17.20;99.90;;;;;;5074993;28;20462;-36
2023/04/16 12:15:48;;;;;;;20.58;14.75;;;17.30;99.90;;;;;;5063775;28;20051;-37
2023/04/16 12:18:15;;;;;;;18.70;15.73;;;17.40;99.90;;;;;;5065544;28;20044;-36
2023/04/16 12:20:41;;;;;;;16.60;14.82;;;17.40;99.90;;;;;;5074533;28;20078;-36
2023/04/16 12:23:07;;;;;;;17.77;15.13;;;17.60;99.90;;;;;;5068647;28;20032;-36
2023/04/16 12:25:35;;;;;;;17.90;15.35;;;17.70;99.90;;;;;;5073473;28;20511;-36
2023/04/16 12:28:01;;;;;;;19.73;14.90;;;18.40;99.90;;;;;;5055358;28;20036;-38
2023/04/16 12:30:27;;;;;;;16.10;14.38;;;18.70;99.90;;;;;;5060433;28;20108;-37
2023/04/16 12:33:16;;;;;;;17.73;14.98;;;18.80;99.90;;;;;;5068282;28;20115;-37